Time;durP1;ratioP1;P1;durP2;ratioP2;P2;SDS_P1;SDS_P2;PMS_P1;PMS_P2;Temp;Humidity;BMP_temperature;BMP_pressure;BME280_temperature;BME280_humidity;BME280_pressure;Samples;Min_cycle;Max_cycle;Signal;HPM_P1;HPM_P2
2021/11/24 00:00:24;;;;;;;46.95;22.23;;;9.60;99.90;;;;;;5073462;28;20039;-72
2021/11/24 00:02:50;;;;;;;44.28;23.33;;;9.50;99.90;;;;;;5074113;28;20048;-73
2021/11/24 00:05:16;;;;;;;48.60;22.95;;;9.60;99.90;;;;;;5073514;28;20321;-72
2021/11/24 00:07:42;;;;;;;46.83;22.85;;;9.70;99.90;;;;;;5074107;28;20029;-72
2021/11/24 00:10:10;;;;;;;50.72;24.42;;;9.70;99.90;;;;;;5074241;28;20072;-71
2021/11/24 00:12:36;;;;;;;43.30;23.05;;;9.90;99.90;;;;;;5074102;28;20029;-72
2021/11/24 00:15:04;;;;;;;44.22;22.88;;;9.80;99.90;;;;;;5073995;28;20047;-72
2021/11/24 00:17:30;;;;;;;56.35;24.38;;;9.70;99.90;;;;;;5074383;28;20083;-72
2021/11/24 00:19:56;;;;;;;51.67;24.52;;;9.60;99.90;;;;;;5073779;28;20459;-72
2021/11/24 00:22:21;;;;;;;49.42;25.15;;;9.60;99.90;;;;;;5073804;28;20056;-72
2021/11/24 00:24:47;;;;;;;55.13;24.02;;;9.60;99.90;;;;;;5073703;28;20037;-72
2021/11/24 00:27:13;;;;;;;48.05;23.00;;;9.80;99.90;;;;;;5073658;28;20032;-71
2021/11/24 00:29:38;;;;;;;45.47;23.05;;;9.70;99.90;;;;;;5073828;28;20056;-72
2021/11/24 00:32:06;;;;;;;45.60;22.90;;;9.60;99.90;;;;;;5073444;28;20036;-73
2021/11/24 00:34:32;;;;;;;53.63;24.33;;;9.60;99.90;;;;;;5073469;28;20029;-71
2021/11/24 00:36:58;;;;;;;48.72;23.67;;;9.50;99.90;;;;;;5073353;28;20040;-72
2021/11/24 00:39:23;;;;;;;52.05;24.13;;;9.40;99.90;;;;;;5073422;28;20032;-73
2021/11/24 00:41:49;;;;;;;46.47;22.75;;;9.40;99.90;;;;;;5073391;28;20212;-72
2021/11/24 00:44:15;;;;;;;51.17;23.10;;;9.50;99.90;;;;;;5073921;28;20025;-72
2021/11/24 00:46:41;;;;;;;45.28;21.60;;;9.50;99.90;;;;;;5073281;28;20072;-73
2021/11/24 00:49:08;;;;;;;46.30;23.23;;;9.50;99.90;;;;;;5073234;28;20106;-74
2021/11/24 00:51:33;;;;;;;50.70;22.88;;;9.60;99.90;;;;;;5073209;28;20032;-72
2021/11/24 00:53:59;;;;;;;46.75;22.42;;;9.60;99.90;;;;;;5073169;28;20054;-72
2021/11/24 00:56:25;;;;;;;46.17;22.65;;;9.50;99.90;;;;;;5073462;28;20031;-71
2021/11/24 00:58:50;;;;;;;48.58;24.02;;;9.50;99.90;;;;;;5072829;28;20489;-71
2021/11/24 01:01:16;;;;;;;49.40;22.92;;;9.50;99.90;;;;;;5073346;28;20623;-72
2021/11/24 01:03:41;;;;;;;49.85;23.77;;;9.50;99.90;;;;;;5072830;28;20035;-71
2021/11/24 01:06:07;;;;;;;53.05;23.25;;;9.50;99.90;;;;;;5073071;28;20466;-71
2021/11/24 01:08:33;;;;;;;45.35;22.35;;;9.50;99.90;;;;;;5073794;28;20051;-72
2021/11/24 01:10:59;;;;;;;47.63;22.50;;;9.50;99.90;;;;;;5071853;28;20047;-72
2021/11/24 01:13:24;;;;;;;46.85;21.90;;;9.60;99.90;;;;;;5072641;28;20398;-72
2021/11/24 01:15:50;;;;;;;47.70;20.58;;;9.60;99.90;;;;;;5071806;28;20041;-72
2021/11/24 01:18:17;;;;;;;41.67;20.35;;;9.60;99.90;;;;;;5072759;28;20628;-71
2021/11/24 01:20:46;;;;;;;45.08;20.40;;;9.60;99.90;;;;;;5073059;28;20482;-72
2021/11/24 01:23:11;;;;;;;37.67;20.08;;;9.60;99.90;;;;;;5072634;28;20024;-72
2021/11/24 01:25:37;;;;;;;44.70;19.98;;;9.60;99.90;;;;;;5072679;28;20036;-72
2021/11/24 01:28:03;;;;;;;43.33;20.98;;;9.70;99.90;;;;;;5072695;28;20048;-72
2021/11/24 01:30:29;;;;;;;45.47;20.63;;;9.70;99.90;;;;;;5071429;28;20148;-72
2021/11/24 01:32:54;;;;;;;40.47;20.17;;;9.70;99.90;;;;;;5072309;28;20021;-73
2021/11/24 01:35:20;;;;;;;42.65;19.13;;;9.80;99.90;;;;;;5072997;28;20040;-72
2021/11/24 01:37:46;;;;;;;38.00;20.00;;;9.70;99.90;;;;;;5072690;28;20033;-73
2021/11/24 01:40:12;;;;;;;42.20;19.67;;;9.80;99.90;;;;;;5072588;28;20142;-72
2021/11/24 01:42:39;;;;;;;40.72;19.40;;;9.90;99.90;;;;;;5072707;28;20016;-72
2021/11/24 01:45:06;;;;;;;48.15;20.65;;;9.80;99.90;;;;;;5072377;28;20095;-73
2021/11/24 01:47:31;;;;;;;51.90;22.13;;;9.90;99.90;;;;;;5072899;28;20021;-72
2021/11/24 01:49:57;;;;;;;39.42;19.63;;;9.80;99.90;;;;;;5072301;28;20551;-71
2021/11/24 01:52:23;;;;;;;46.42;20.77;;;9.80;99.90;;;;;;5071923;28;20032;-73
2021/11/24 01:54:49;;;;;;;42.78;19.83;;;9.50;99.90;;;;;;5072502;28;20116;-73
2021/11/24 01:57:18;;;;;;;45.40;20.08;;;9.50;99.90;;;;;;5072061;28;20458;-73
2021/11/24 01:59:46;;;;;;;43.30;20.92;;;9.60;99.90;;;;;;5072124;28;20449;-74
2021/11/24 02:02:12;;;;;;;45.28;20.38;;;9.60;99.90;;;;;;5071952;28;20033;-76
2021/11/24 02:04:37;;;;;;;37.63;18.38;;;9.60;99.90;;;;;;5072095;28;20025;-73
2021/11/24 02:07:03;;;;;;;44.83;21.08;;;9.50;99.90;;;;;;5071943;28;20082;-73
2021/11/24 02:09:29;;;;;;;39.53;19.05;;;9.60;99.90;;;;;;5071912;28;20032;-73
2021/11/24 02:11:56;;;;;;;50.65;20.33;;;9.70;99.90;;;;;;5071631;28;20024;-73
2021/11/24 02:14:22;;;;;;;44.10;19.08;;;9.70;99.90;;;;;;5072108;28;20012;-73
2021/11/24 02:16:51;;;;;;;51.38;21.05;;;9.60;99.90;;;;;;5071435;28;20057;-72
2021/11/24 02:19:18;;;;;;;43.88;19.92;;;9.50;99.90;;;;;;5071855;28;20051;-71
2021/11/24 02:21:46;;;;;;;44.17;18.65;;;9.50;99.90;;;;;;5071184;28;20066;-72
2021/11/24 02:24:12;;;;;;;45.78;19.98;;;9.60;99.90;;;;;;5071609;28;20032;-73
2021/11/24 02:26:38;;;;;;;48.20;20.95;;;9.50;99.90;;;;;;5071988;28;20096;-72
2021/11/24 02:29:03;;;;;;;43.35;19.85;;;9.40;99.90;;;;;;5071559;28;20120;-72
2021/11/24 02:31:29;;;;;;;51.22;21.10;;;9.50;99.90;;;;;;5071284;28;20427;-72
2021/11/24 02:33:56;;;;;;;45.40;20.60;;;9.50;99.90;;;;;;5071256;28;20044;-72
2021/11/24 02:36:23;;;;;;;47.53;21.23;;;9.40;99.90;;;;;;5057987;28;20029;-72
2021/11/24 02:38:49;;;;;;;55.05;20.85;;;9.40;99.90;;;;;;5051121;28;20021;-73
2021/11/24 02:41:15;;;;;;;44.90;20.70;;;9.30;99.90;;;;;;5050582;28;20513;-72
2021/11/24 02:43:40;;;;;;;50.38;20.58;;;9.50;99.90;;;;;;5051152;28;20040;-74
2021/11/24 02:46:07;;;;;;;48.72;20.10;;;9.50;99.90;;;;;;5050054;28;20478;-73
2021/11/24 02:48:32;;;;;;;47.45;19.83;;;9.50;99.90;;;;;;5050957;28;20051;-72
2021/11/24 02:50:58;;;;;;;45.45;20.02;;;9.50;99.90;;;;;;5050891;28;20455;-71
2021/11/24 02:53:26;;;;;;;45.58;20.23;;;9.50;99.90;;;;;;5051371;28;20036;-72
2021/11/24 02:55:53;;;;;;;53.05;22.17;;;9.60;99.90;;;;;;5050207;28;20021;-73
2021/11/24 02:58:18;;;;;;;43.00;19.77;;;9.60;99.90;;;;;;5050890;28;20074;-73
2021/11/24 03:00:44;;;;;;;44.17;20.17;;;9.60;99.90;;;;;;5050758;28;20115;-72
2021/11/24 03:03:10;;;;;;;47.08;20.10;;;9.60;99.90;;;;;;5050684;28;20024;-73
2021/11/24 03:05:36;;;;;;;44.80;20.17;;;9.50;99.90;;;;;;5051056;28;20025;-73
2021/11/24 03:08:02;;;;;;;44.22;20.98;;;9.60;99.90;;;;;;5049488;28;20436;-73
2021/11/24 03:10:28;;;;;;;47.00;20.15;;;9.50;99.90;;;;;;5050766;28;20037;-72
2021/11/24 03:12:53;;;;;;;50.30;20.25;;;9.50;99.90;;;;;;5050421;28;20041;-72
2021/11/24 03:15:19;;;;;;;47.83;22.20;;;9.60;99.90;;;;;;5050485;28;20029;-72
2021/11/24 03:17:45;;;;;;;48.65;20.63;;;9.60;99.90;;;;;;5050931;28;20438;-72
2021/11/24 03:20:13;;;;;;;48.28;20.67;;;9.70;99.90;;;;;;5049404;28;20069;-72
2021/11/24 03:22:39;;;;;;;;;;;9.70;99.90;;;;;;5051123;28;20041;-72
2021/11/24 03:25:07;;;;;;;46.70;21.52;;;9.60;99.90;;;;;;5050405;28;19984;-72
2021/11/24 03:27:37;;;;;;;;;;;9.60;99.90;;;;;;5049755;28;20116;-72
2021/11/24 03:30:08;;;;;;;51.20;20.52;;;9.50;99.90;;;;;;5049079;28;20384;-71
2021/11/24 03:32:34;;;;;;;44.05;20.77;;;9.50;99.90;;;;;;5050469;28;20033;-72
2021/11/24 03:34:59;;;;;;;47.05;20.65;;;9.60;99.90;;;;;;5048756;28;20040;-72
2021/11/24 03:37:25;;;;;;;47.08;20.70;;;9.50;99.90;;;;;;5050219;28;20030;-72
2021/11/24 03:39:52;;;;;;;47.65;20.85;;;9.60;99.90;;;;;;5050101;28;20116;-72
2021/11/24 03:42:17;;;;;;;50.28;21.30;;;9.60;99.90;;;;;;5050121;28;20449;-71
2021/11/24 03:44:44;;;;;;;46.28;21.15;;;9.60;99.90;;;;;;5049530;28;20044;-72
2021/11/24 03:47:10;;;;;;;46.05;20.25;;;9.60;99.90;;;;;;5050116;28;20029;-71
2021/11/24 03:49:36;;;;;;;51.05;20.60;;;9.50;99.90;;;;;;5050249;28;20447;-72
2021/11/24 03:52:02;;;;;;;48.42;22.10;;;9.50;99.90;;;;;;5048770;28;20067;-71
2021/11/24 03:54:28;;;;;;;48.72;21.83;;;9.50;99.90;;;;;;5049131;28;20033;-72
2021/11/24 03:56:54;;;;;;;43.80;20.30;;;9.60;99.90;;;;;;5049959;28;20465;-72
2021/11/24 03:59:19;;;;;;;44.10;20.25;;;9.70;99.90;;;;;;5049334;28;20021;-72
2021/11/24 04:01:45;;;;;;;41.42;19.70;;;9.70;99.90;;;;;;5049141;28;20031;-72
2021/11/24 04:04:11;;;;;;;40.65;19.63;;;9.80;99.90;;;;;;5050030;28;20049;-72
2021/11/24 04:06:36;;;;;;;48.95;20.92;;;9.80;99.90;;;;;;5050281;28;20026;-72
2021/11/24 04:09:02;;;;;;;49.45;22.00;;;9.80;99.90;;;;;;5049039;28;20021;-71
2021/11/24 04:11:28;;;;;;;45.47;19.85;;;9.80;99.90;;;;;;5050475;28;20347;-71
2021/11/24 04:13:54;;;;;;;49.25;19.70;;;9.70;99.90;;;;;;5049675;28;20033;-72
2021/11/24 04:16:20;;;;;;;46.95;20.77;;;9.70;99.90;;;;;;5049757;28;20031;-72
2021/11/24 04:18:47;;;;;;;43.05;19.95;;;9.70;99.90;;;;;;5049504;28;20029;-71
2021/11/24 04:21:17;;;;;;;53.92;21.30;;;9.80;99.90;;;;;;5049685;28;20040;-71
2021/11/24 04:23:43;;;;;;;39.88;18.77;;;9.80;99.90;;;;;;5050389;28;20018;-72
2021/11/24 04:26:09;;;;;;;42.65;19.20;;;9.80;99.90;;;;;;5049787;28;20036;-72
2021/11/24 04:28:35;;;;;;;46.45;19.17;;;9.70;99.90;;;;;;5049712;28;20025;-72
2021/11/24 04:31:05;;;;;;;46.08;19.65;;;9.80;99.90;;;;;;5049367;28;20134;-72
2021/11/24 04:33:31;;;;;;;41.20;19.02;;;9.80;99.90;;;;;;5049558;28;20143;-72
2021/11/24 04:35:56;;;;;;;43.15;20.33;;;9.80;99.90;;;;;;5049486;28;20033;-71
2021/11/24 04:38:23;;;;;;;42.75;19.98;;;9.80;99.90;;;;;;5050485;28;20032;-72
2021/11/24 04:40:48;;;;;;;40.45;18.70;;;9.80;99.90;;;;;;5049845;28;20029;-71
2021/11/24 04:43:16;;;;;;;39.58;18.75;;;9.90;99.90;;;;;;5049678;28;20037;-73
2021/11/24 04:45:42;;;;;;;37.85;17.88;;;10.00;99.90;;;;;;5051515;28;20028;-72
2021/11/24 04:48:08;;;;;;;43.25;18.30;;;9.80;99.90;;;;;;5053235;28;20846;-72
2021/11/24 04:50:33;;;;;;;37.65;17.70;;;9.80;99.90;;;;;;5053741;28;20025;-71
2021/11/24 04:52:59;;;;;;;37.60;18.00;;;9.80;99.90;;;;;;5052109;28;20063;-71
2021/11/24 04:55:25;;;;;;;37.53;17.27;;;9.80;99.90;;;;;;5053226;28;20360;-72
2021/11/24 04:57:50;;;;;;;33.92;16.85;;;9.70;99.90;;;;;;5053075;28;20559;-72
2021/11/24 05:00:20;;;;;;;31.45;15.65;;;9.80;99.90;;;;;;5052992;28;20124;-72
2021/11/24 05:02:46;;;;;;;37.42;17.77;;;9.70;99.90;;;;;;5053386;28;20048;-73
2021/11/24 05:05:12;;;;;;;43.70;18.48;;;9.70;99.90;;;;;;5052862;28;20462;-72
2021/11/24 05:07:38;;;;;;;37.35;16.10;;;9.70;99.90;;;;;;5052893;28;20026;-72
2021/11/24 05:10:04;;;;;;;35.60;16.08;;;9.70;99.90;;;;;;5052958;28;20301;-72
2021/11/24 05:12:31;;;;;;;38.40;17.42;;;9.70;99.90;;;;;;5052728;28;20072;-71
2021/11/24 05:14:58;;;;;;;40.15;16.52;;;9.70;99.90;;;;;;5052620;28;20032;-72
2021/11/24 05:17:25;;;;;;;37.17;16.75;;;9.70;99.90;;;;;;5053212;28;20032;-72
2021/11/24 05:19:52;;;;;;;36.17;15.93;;;9.80;99.90;;;;;;5052600;28;20075;-72
2021/11/24 05:22:19;;;;;;;36.58;15.65;;;9.80;99.90;;;;;;5052458;28;20029;-72
2021/11/24 05:24:44;;;;;;;32.78;15.13;;;9.70;99.90;;;;;;5052433;28;20037;-73
2021/11/24 05:27:10;;;;;;;32.65;15.18;;;9.80;99.90;;;;;;5052630;28;20028;-72
2021/11/24 05:29:36;;;;;;;33.95;15.55;;;9.80;99.90;;;;;;5052633;28;20064;-72
2021/11/24 05:32:02;;;;;;;39.67;16.10;;;9.90;99.90;;;;;;5052277;28;20044;-72
2021/11/24 05:34:28;;;;;;;29.23;14.88;;;10.00;99.50;;;;;;5052259;28;20375;-72
2021/11/24 05:36:54;;;;;;;29.77;14.30;;;10.00;99.30;;;;;;5052362;28;20198;-72
2021/11/24 05:39:19;;;;;;;29.67;15.05;;;10.00;99.30;;;;;;5052231;28;20040;-73
2021/11/24 05:41:45;;;;;;;30.80;14.07;;;10.00;99.20;;;;;;5052917;28;20029;-72
2021/11/24 05:46:48;;;;;;;30.75;14.45;;;10.00;99.20;;;;;;5051913;28;20057;-71
2021/11/24 05:49:15;;;;;;;31.70;14.82;;;9.90;99.70;;;;;;5051971;28;20125;-71
2021/11/24 05:51:41;;;;;;;33.08;14.38;;;9.90;99.70;;;;;;5051905;28;20044;-71
2021/11/24 05:54:07;;;;;;;36.50;15.45;;;9.80;99.80;;;;;;5051998;28;20095;-71
2021/11/24 05:56:36;;;;;;;33.45;15.15;;;9.90;99.80;;;;;;5051870;28;20036;-73
2021/11/24 05:59:03;;;;;;;32.20;14.30;;;9.80;99.60;;;;;;5050702;28;20037;-73
2021/11/24 06:01:29;;;;;;;32.47;14.50;;;9.80;99.80;;;;;;5051932;28;20041;-72
2021/11/24 06:03:55;;;;;;;32.38;14.77;;;9.70;99.80;;;;;;5051375;28;20107;-72
2021/11/24 06:06:20;;;;;;;34.78;15.57;;;9.90;99.90;;;;;;5051513;28;20025;-73
2021/11/24 06:08:46;;;;;;;35.78;16.08;;;9.90;99.90;;;;;;5051147;28;20068;-72
2021/11/24 06:11:12;;;;;;;33.47;13.98;;;9.80;99.90;;;;;;5051649;28;20076;-73
2021/11/24 06:13:37;;;;;;;32.20;14.50;;;9.80;99.80;;;;;;5054171;28;20157;-71
2021/11/24 06:16:03;;;;;;;34.13;14.48;;;9.90;99.90;;;;;;5071503;28;20428;-72
2021/11/24 06:18:29;;;;;;;31.80;14.82;;;9.90;99.80;;;;;;5071386;28;20067;-73
2021/11/24 06:20:54;;;;;;;34.72;15.27;;;9.90;99.90;;;;;;5070210;28;20120;-72
2021/11/24 06:23:20;;;;;;;32.10;14.38;;;9.90;99.80;;;;;;5071057;28;20445;-74
2021/11/24 06:25:46;;;;;;;35.42;15.02;;;9.90;99.70;;;;;;5071149;28;20328;-72
2021/11/24 06:28:12;;;;;;;34.35;15.25;;;9.90;99.70;;;;;;5071023;28;20425;-71
2021/11/24 06:30:38;;;;;;;34.97;14.63;;;9.90;99.70;;;;;;5069722;28;20124;-72
2021/11/24 06:33:04;;;;;;;43.38;15.82;;;9.90;99.70;;;;;;5070890;28;20527;-75
2021/11/24 06:35:29;;;;;;;33.40;13.25;;;9.90;99.70;;;;;;5069953;28;20044;-73
2021/11/24 06:37:55;;;;;;;32.30;14.02;;;9.90;99.60;;;;;;5069598;28;20075;-72
2021/11/24 06:40:21;;;;;;;33.22;14.30;;;9.90;99.70;;;;;;5071338;28;20375;-75
2021/11/24 06:42:47;;;;;;;36.17;14.25;;;10.00;99.30;;;;;;5069897;28;20430;-72
2021/11/24 06:45:14;;;;;;;33.10;15.23;;;9.90;99.70;;;;;;5070839;28;20113;-72
2021/11/24 06:47:43;;;;;;;35.15;14.77;;;9.80;99.80;;;;;;5070044;28;20103;-73
2021/11/24 06:50:11;;;;;;;37.40;15.70;;;9.90;99.70;;;;;;5069766;28;20029;-73
2021/11/24 06:52:37;;;;;;;32.40;14.40;;;9.90;99.80;;;;;;5070615;28;20036;-71
2021/11/24 06:55:04;;;;;;;33.40;14.13;;;9.90;99.80;;;;;;5070455;28;20119;-71
2021/11/24 06:57:29;;;;;;;35.60;14.93;;;9.90;99.60;;;;;;5070756;28;20388;-71
2021/11/24 06:59:55;;;;;;;48.83;17.63;;;9.90;99.60;;;;;;5070391;28;20029;-70
2021/11/24 07:02:21;;;;;;;44.40;18.95;;;9.80;99.70;;;;;;5070617;28;20052;-72
2021/11/24 07:04:47;;;;;;;35.42;13.90;;;9.90;99.80;;;;;;5070186;28;20025;-71
2021/11/24 07:07:13;;;;;;;27.63;12.90;;;9.90;99.70;;;;;;5069935;28;20210;-72
2021/11/24 07:09:40;;;;;;;36.92;13.57;;;9.90;99.50;;;;;;5069476;28;20672;-72
2021/11/24 07:12:09;;;;;;;28.52;13.60;;;9.90;99.50;;;;;;5070537;28;20052;-72
2021/11/24 07:14:35;;;;;;;29.90;13.18;;;10.00;99.00;;;;;;5071360;28;20461;-71
2021/11/24 07:17:01;;;;;;;31.00;12.38;;;10.00;99.10;;;;;;5070722;28;20411;-71
2021/11/24 07:19:27;;;;;;;27.83;12.88;;;10.00;98.70;;;;;;5069648;28;20043;-73
2021/11/24 07:21:53;;;;;;;30.33;12.43;;;10.00;98.80;;;;;;5070681;28;20036;-72
2021/11/24 07:24:20;;;;;;;27.02;13.05;;;10.00;98.70;;;;;;5070696;28;20127;-71
2021/11/24 07:26:46;;;;;;;30.20;12.23;;;10.00;98.60;;;;;;5071139;28;20024;-71
2021/11/24 07:29:13;;;;;;;28.08;12.73;;;9.90;99.20;;;;;;5070743;28;20028;-71
2021/11/24 07:31:40;;;;;;;27.55;11.73;;;10.10;98.70;;;;;;5070454;28;20036;-72
2021/11/24 07:34:06;;;;;;;27.30;12.38;;;10.10;98.60;;;;;;5070428;28;20121;-71
2021/11/24 07:36:31;;;;;;;28.83;12.60;;;10.10;98.50;;;;;;5070443;28;20608;-71
2021/11/24 07:38:57;;;;;;;27.05;11.77;;;10.00;98.40;;;;;;5070462;28;20021;-71
2021/11/24 07:41:23;;;;;;;29.33;12.60;;;10.00;98.60;;;;;;5070818;28;20442;-71
2021/11/24 07:43:49;;;;;;;38.47;13.60;;;10.10;98.60;;;;;;5070168;28;20091;-73
2021/11/24 07:46:16;;;;;;;33.10;15.30;;;10.10;98.60;;;;;;5070110;28;20035;-71
2021/11/24 07:48:42;;;;;;;26.98;12.57;;;10.10;98.60;;;;;;5070271;28;20024;-71
2021/11/24 07:51:10;;;;;;;26.85;13.02;;;10.10;98.30;;;;;;5068896;28;20032;-72
2021/11/24 07:53:35;;;;;;;28.60;12.98;;;10.10;98.30;;;;;;5070880;28;20032;-71
2021/11/24 07:56:01;;;;;;;27.50;12.63;;;10.10;98.40;;;;;;5070199;28;20032;-72
2021/11/24 07:58:26;;;;;;;29.02;12.93;;;10.20;98.40;;;;;;5070049;28;20036;-72
2021/11/24 08:00:52;;;;;;;23.67;11.90;;;10.10;98.30;;;;;;5070413;28;20446;-70
2021/11/24 08:03:18;;;;;;;31.70;12.07;;;10.10;98.40;;;;;;5070239;28;20637;-71
2021/11/24 08:05:44;;;;;;;31.73;13.02;;;10.20;98.50;;;;;;5070545;28;20028;-71
2021/11/24 08:08:10;;;;;;;29.02;12.32;;;10.20;98.20;;;;;;5070103;28;20103;-71
2021/11/24 08:10:36;;;;;;;28.45;13.82;;;10.00;98.20;;;;;;5070354;28;20102;-70
2021/11/24 08:13:02;;;;;;;27.15;11.38;;;10.00;98.10;;;;;;5070124;28;20183;-73
2021/11/24 08:15:28;;;;;;;27.98;12.85;;;10.10;98.40;;;;;;5069975;28;20107;-71
2021/11/24 08:17:53;;;;;;;32.60;14.27;;;10.20;98.30;;;;;;5069907;28;20107;-72
2021/11/24 08:20:19;;;;;;;29.05;12.25;;;10.20;98.10;;;;;;5072179;28;20020;-71
2021/11/24 08:22:45;;;;;;;27.67;12.85;;;10.10;98.20;;;;;;5073009;28;20112;-72
2021/11/24 08:25:11;;;;;;;29.70;13.13;;;10.20;98.20;;;;;;5074101;28;20040;-71
2021/11/24 08:27:37;;;;;;;25.42;13.38;;;10.30;98.10;;;;;;5074110;28;20024;-73
2021/11/24 08:30:06;;;;;;;26.58;12.70;;;10.20;98.40;;;;;;5073620;28;20071;-71
2021/11/24 08:32:31;;;;;;;26.92;13.00;;;10.10;98.00;;;;;;5074100;28;20174;-71
2021/11/24 08:34:59;;;;;;;31.05;12.07;;;10.10;98.10;;;;;;5073721;28;20104;-71
2021/11/24 08:37:26;;;;;;;28.13;12.18;;;10.20;98.20;;;;;;5073810;28;20024;-71
2021/11/24 08:39:51;;;;;;;25.35;12.00;;;10.20;97.90;;;;;;5073790;28;20040;-71
2021/11/24 08:42:17;;;;;;;26.13;11.90;;;10.10;98.00;;;;;;5073561;28;20024;-72
2021/11/24 08:44:43;;;;;;;27.75;12.23;;;10.20;98.00;;;;;;5074183;28;20052;-71
2021/11/24 08:47:08;;;;;;;25.42;11.40;;;10.20;97.70;;;;;;5073425;28;20040;-72
2021/11/24 08:49:34;;;;;;;31.35;15.02;;;10.00;97.90;;;;;;5073436;28;20358;-70
2021/11/24 08:52:00;;;;;;;24.92;11.75;;;10.20;98.00;;;;;;5073159;28;20028;-71
2021/11/24 08:54:26;;;;;;;24.75;10.55;;;10.10;97.80;;;;;;5073451;28;20111;-72
2021/11/24 08:56:52;;;;;;;24.52;10.77;;;10.10;97.80;;;;;;5073555;28;20055;-71
2021/11/24 08:59:18;;;;;;;31.40;12.00;;;10.20;97.70;;;;;;5073580;28;20027;-72
2021/11/24 09:01:44;;;;;;;20.92;11.05;;;10.30;97.80;;;;;;5073208;28;20033;-71
2021/11/24 09:04:10;;;;;;;28.00;11.10;;;10.30;97.60;;;;;;5073334;28;20037;-71
2021/11/24 09:06:36;;;;;;;22.13;9.88;;;10.30;97.60;;;;;;5072114;28;20382;-71
2021/11/24 09:09:06;;;;;;;26.52;11.05;;;10.30;97.40;;;;;;5073464;28;20028;-71
2021/11/24 09:11:32;;;;;;;28.65;11.90;;;10.30;97.50;;;;;;5073400;28;20649;-72
2021/11/24 09:13:58;;;;;;;22.80;11.60;;;10.30;97.40;;;;;;5073145;28;20116;-72
2021/11/24 09:16:24;;;;;;;26.63;12.23;;;10.40;97.40;;;;;;5072907;28;20041;-70
2021/11/24 09:18:49;;;;;;;24.83;11.48;;;10.30;97.20;;;;;;5072841;28;20449;-71
2021/11/24 09:21:15;;;;;;;19.73;10.00;;;10.30;97.30;;;;;;5072857;28;20082;-72
2021/11/24 09:23:44;;;;;;;24.75;11.43;;;10.30;97.20;;;;;;5073723;28;20062;-71
2021/11/24 09:28:54;;;;;;;28.48;13.93;;;10.50;97.40;;;;;;5073012;28;20507;-72
2021/11/24 09:31:20;;;;;;;26.75;12.65;;;10.40;97.10;;;;;;5072068;28;20044;-72
2021/11/24 09:33:45;;;;;;;26.67;13.10;;;10.30;97.20;;;;;;5072566;28;20124;-71
2021/11/24 09:36:12;;;;;;;24.20;12.90;;;10.30;97.20;;;;;;5072948;28;20100;-71
2021/11/24 09:38:38;;;;;;;27.38;12.80;;;10.10;97.10;;;;;;5072987;28;20078;-71
2021/11/24 09:41:08;;;;;;;23.98;12.02;;;10.30;97.40;;;;;;5072719;28;20369;-71
2021/11/24 09:43:38;;;;;;;32.60;14.20;;;10.30;97.30;;;;;;5072397;28;20033;-71
2021/11/24 09:46:05;;;;;;;28.70;13.50;;;10.40;97.30;;;;;;5072854;28;20123;-70
2021/11/24 09:48:31;;;;;;;28.88;13.50;;;10.40;97.20;;;;;;5072608;28;20032;-71
2021/11/24 09:51:00;;;;;;;24.73;12.75;;;10.40;97.10;;;;;;5072432;28;20110;-72
2021/11/24 09:53:28;;;;;;;28.77;13.43;;;10.50;97.40;;;;;;5072599;28;20016;-71
2021/11/24 09:55:54;;;;;;;;;;;10.60;97.30;;;;;;5072892;28;20135;-71
2021/11/24 09:58:20;;;;;;;29.52;14.00;;;10.60;97.10;;;;;;5072040;28;20393;-71
2021/11/24 10:00:46;;;;;;;41.65;14.57;;;10.60;97.20;;;;;;5072162;28;20144;-72
2021/11/24 10:03:13;;;;;;;30.00;13.00;;;10.60;97.20;;;;;;5071473;28;20024;-71
2021/11/24 10:05:39;;;;;;;34.92;12.68;;;10.50;96.90;;;;;;5071384;28;20465;-70
2021/11/24 10:08:06;;;;;;;38.00;15.63;;;10.40;97.10;;;;;;5072392;28;20028;-71
2021/11/24 10:10:32;;;;;;;27.27;13.25;;;10.60;97.70;;;;;;5070780;28;20064;-70
2021/11/24 10:12:58;;;;;;;31.70;13.90;;;10.60;96.90;;;;;;5071872;28;20464;-71
2021/11/24 10:15:50;;;;;;;32.50;13.98;;;10.60;96.90;;;;;;5072048;28;20115;-72
2021/11/24 10:18:17;;;;;;;26.55;13.25;;;10.60;96.90;;;;;;5070484;28;20029;-72
2021/11/24 10:21:08;;;;;;;39.47;14.90;;;10.60;96.80;;;;;;5071079;28;20024;-70
2021/11/24 10:23:40;;;;;;;31.42;13.93;;;10.50;96.90;;;;;;5071848;28;20045;-71
2021/11/24 10:26:36;;;;;;;31.98;14.05;;;10.60;97.00;;;;;;5071646;28;20124;-71
2021/11/24 10:29:09;;;;;;;33.60;13.25;;;10.70;97.00;;;;;;5071721;28;20051;-72
2021/11/24 10:31:40;;;;;;;31.83;14.50;;;10.80;97.00;;;;;;5071153;28;20093;-73
2021/11/24 10:34:38;;;;;;;32.25;13.85;;;10.70;96.70;;;;;;5071466;28;20056;-72
2021/11/24 10:37:15;;;;;;;32.10;13.10;;;10.70;96.70;;;;;;5071555;28;20056;-72
2021/11/24 10:39:57;;;;;;;26.65;13.25;;;10.80;96.80;;;;;;5071391;28;20040;-72
2021/11/24 10:42:41;;;;;;;32.25;13.65;;;10.80;96.60;;;;;;5071245;28;20021;-71
2021/11/24 10:45:13;;;;;;;35.53;17.15;;;10.70;96.50;;;;;;5071259;28;20024;-71
2021/11/24 10:47:49;;;;;;;27.67;13.93;;;10.70;96.60;;;;;;5071788;28;20492;-71
2021/11/24 10:50:26;;;;;;;27.52;12.48;;;10.80;96.60;;;;;;5071294;28;20102;-72
2021/11/24 10:52:53;;;;;;;29.98;13.35;;;10.80;96.50;;;;;;5071526;28;20039;-72
2021/11/24 10:55:31;;;;;;;26.10;13.30;;;10.80;96.20;;;;;;5071269;28;20082;-72
2021/11/24 10:58:04;;;;;;;29.88;12.95;;;10.90;96.30;;;;;;5071233;28;20033;-71
2021/11/24 11:00:41;;;;;;;26.75;13.18;;;10.90;96.40;;;;;;5071269;28;20104;-71
2021/11/24 11:03:08;;;;;;;28.02;13.05;;;10.80;96.20;;;;;;5070568;28;20083;-72
2021/11/24 11:05:35;;;;;;;31.60;12.70;;;10.90;96.50;;;;;;5071504;28;20032;-71
2021/11/24 11:08:06;;;;;;;26.60;11.73;;;11.00;96.30;;;;;;5070851;28;20051;-71
2021/11/24 11:10:35;;;;;;;32.97;15.23;;;11.00;96.30;;;;;;5070733;28;20025;-72
2021/11/24 11:13:06;;;;;;;24.23;11.55;;;10.90;96.10;;;;;;5070995;28;20039;-72
2021/11/24 11:15:42;;;;;;;24.10;11.93;;;10.90;96.10;;;;;;5070953;28;20043;-71
2021/11/24 11:18:18;;;;;;;25.00;12.07;;;10.80;96.00;;;;;;5070834;28;20055;-72
2021/11/24 11:20:45;;;;;;;26.52;13.07;;;10.80;96.20;;;;;;5071521;28;20021;-72
2021/11/24 11:23:17;;;;;;;25.15;12.80;;;10.80;96.30;;;;;;5070900;28;20054;-71
2021/11/24 11:25:55;;;;;;;32.38;14.63;;;11.00;96.30;;;;;;5070956;28;20047;-72
2021/11/24 11:28:23;;;;;;;37.35;16.80;;;11.00;96.00;;;;;;5070561;28;20040;-72
2021/11/24 11:30:51;;;;;;;27.63;13.35;;;11.00;96.00;;;;;;5069399;28;20067;-71
2021/11/24 11:33:19;;;;;;;22.52;11.05;;;11.00;96.10;;;;;;5070676;28;20112;-72
2021/11/24 11:35:46;;;;;;;34.67;13.23;;;11.10;96.00;;;;;;5070799;28;20028;-75
2021/11/24 11:38:12;;;;;;;25.55;12.65;;;11.10;95.80;;;;;;5070657;28;20071;-80
2021/11/24 11:40:40;;;;;;;23.52;12.43;;;11.20;95.90;;;;;;5070743;28;20112;-76
2021/11/24 11:43:08;;;;;;;25.33;11.48;;;11.00;95.40;;;;;;5070370;28;20040;-78
2021/11/24 11:45:34;;;;;;;;;;;10.90;95.80;;;;;;5071369;28;20142;-75
2021/11/24 11:48:02;;;;;;;24.88;10.85;;;10.80;95.50;;;;;;5070489;28;19915;-77
2021/11/24 11:50:37;;;;;;;20.55;10.88;;;10.80;95.40;;;;;;5070785;28;20017;-75
2021/11/24 11:53:21;;;;;;;21.67;10.80;;;10.90;95.70;;;;;;5069032;28;20104;-77
2021/11/24 11:56:08;;;;;;;23.83;10.93;;;10.90;95.70;;;;;;5068825;28;20024;-78
2021/11/24 11:58:44;;;;;;;20.88;9.98;;;11.00;95.40;;;;;;5069418;28;20335;-76
2021/11/24 12:01:15;;;;;;;20.77;10.35;;;11.00;95.30;;;;;;5070325;28;20347;-80
2021/11/24 12:03:54;;;;;;;20.88;9.98;;;10.90;95.00;;;;;;5070251;28;20112;-77
2021/11/24 12:06:23;;;;;;;23.38;11.05;;;10.80;94.80;;;;;;5070103;28;20502;-76
2021/11/24 12:09:07;;;;;;;21.40;9.38;;;10.80;95.00;;;;;;5070225;28;20032;-76
2021/11/24 12:11:57;;;;;;;19.55;9.77;;;10.80;94.80;;;;;;5070334;28;20017;-76
2021/11/24 12:15:02;;;;;;;19.05;9.30;;;10.80;95.00;;;;;;5070106;28;20078;-76
2021/11/24 12:17:31;;;;;;;25.00;9.50;;;10.90;94.80;;;;;;5069383;28;20032;-76
2021/11/24 12:20:00;;;;;;;18.80;9.60;;;10.80;94.70;;;;;;5070265;28;20021;-77
2021/11/24 12:22:44;;;;;;;17.50;9.68;;;10.80;94.80;;;;;;5069999;28;20033;-77
2021/11/24 12:27:53;;;;;;;25.00;10.35;;;10.90;94.80;;;;;;5069966;28;20033;-77
2021/11/24 12:33:33;;;;;;;17.85;9.48;;;10.80;94.50;;;;;;5070067;28;20035;-75
2021/11/24 12:36:02;;;;;;;16.92;8.70;;;10.80;94.50;;;;;;5065628;28;20032;-75
2021/11/24 12:38:48;;;;;;;15.77;8.18;;;10.70;94.20;;;;;;5069218;28;20024;-75
2021/11/24 12:41:21;;;;;;;16.58;7.90;;;10.80;94.30;;;;;;5068841;28;20131;-75
2021/11/24 12:43:55;;;;;;;17.77;8.07;;;10.80;94.10;;;;;;5070108;28;20436;-76
2021/11/24 12:46:23;;;;;;;33.83;14.13;;;10.80;94.30;;;;;;5069153;28;20434;-76
2021/11/24 12:48:53;;;;;;;;;;;10.80;94.20;;;;;;5070073;28;20052;-75